createdAt,value
2023-02-22T00:02:12.887Z,17.67
2023-02-22T00:04:39.917Z,17.20
2023-02-22T00:07:07.638Z,17.47
2023-02-22T00:09:34.406Z,19.27
2023-02-22T00:12:01.321Z,18.47
2023-02-22T00:14:31.031Z,18.67
2023-02-22T00:16:59.510Z,17.97
2023-02-22T00:19:28.030Z,18.90
2023-02-22T00:21:54.986Z,18.23
2023-02-22T00:24:25.074Z,18.43
2023-02-22T00:26:58.093Z,18.23
2023-02-22T00:29:25.973Z,16.40
2023-02-22T00:31:54.044Z,16.47
2023-02-22T00:34:21.047Z,17.43
2023-02-22T00:36:49.549Z,17.10
2023-02-22T00:39:16.695Z,18.10
2023-02-22T00:41:46.606Z,18.30
2023-02-22T00:44:13.434Z,17.40
2023-02-22T00:46:40.163Z,18.33
2023-02-22T00:49:07.149Z,18.53
2023-02-22T00:51:33.917Z,17.23
2023-02-22T00:54:01.349Z,17.73
2023-02-22T00:56:28.543Z,18.13
2023-02-22T00:58:57.843Z,18.30
2023-02-22T01:01:24.630Z,16.80
2023-02-22T01:03:51.998Z,18.27
2023-02-22T01:06:19.613Z,18.13
2023-02-22T01:08:48.317Z,17.83
2023-02-22T01:11:17.230Z,17.17
2023-02-22T01:13:46.855Z,16.70
2023-02-22T01:16:14.286Z,19.13
2023-02-22T01:18:41.822Z,17.87
2023-02-22T01:21:08.601Z,18.03
2023-02-22T01:23:35.542Z,18.50
2023-02-22T01:26:04.235Z,18.20
2023-02-22T01:28:34.750Z,17.93
2023-02-22T01:31:02.828Z,19.10
2023-02-22T01:33:33.820Z,18.20
2023-02-22T01:36:03.867Z,18.47
2023-02-22T01:38:30.623Z,17.23
2023-02-22T01:40:57.319Z,18.53
2023-02-22T01:43:30.627Z,17.37
2023-02-22T01:46:01.857Z,17.93
2023-02-22T01:48:42.088Z,18.73
2023-02-22T01:51:21.023Z,18.10
2023-02-22T01:54:13.564Z,17.30
2023-02-22T01:57:00.847Z,16.17
2023-02-22T01:59:34.237Z,17.30
2023-02-22T02:02:01.959Z,17.13
2023-02-22T02:04:33.466Z,17.17
2023-02-22T02:07:08.350Z,17.70
2023-02-22T02:10:00.119Z,17.53
2023-02-22T02:12:32.465Z,18.33
2023-02-22T02:15:20.683Z,17.00
2023-02-22T02:17:52.647Z,15.47
2023-02-22T02:21:18.987Z,17.03
2023-02-22T02:24:09.057Z,15.50
2023-02-22T02:27:10.245Z,15.77
2023-02-22T02:30:15.884Z,16.17
2023-02-22T02:33:24.146Z,16.87
2023-02-22T02:36:27.890Z,15.80
2023-02-22T02:39:20.682Z,15.33
2023-02-22T02:41:51.559Z,15.80
2023-02-22T02:44:51.182Z,17.00
2023-02-22T02:47:34.056Z,15.80
2023-02-22T02:50:23.856Z,16.67
2023-02-22T02:52:58.855Z,16.67
2023-02-22T02:55:35.265Z,16.40
2023-02-22T02:58:06.181Z,14.93
2023-02-22T03:00:41.462Z,16.27
2023-02-22T03:03:26.390Z,16.93
2023-02-22T03:06:24.613Z,16.43
2023-02-22T03:09:13.543Z,15.47
2023-02-22T03:12:02.095Z,15.67
2023-02-22T03:15:15.567Z,16.73
2023-02-22T03:18:02.461Z,15.40
2023-02-22T03:20:55.502Z,15.97
2023-02-22T03:23:46.157Z,16.83
2023-02-22T03:26:30.890Z,16.33
2023-02-22T03:29:05.110Z,16.87
2023-02-22T03:31:42.570Z,17.20
2023-02-22T03:34:43.125Z,15.60
2023-02-22T03:37:27.636Z,15.67
2023-02-22T03:39:58.532Z,16.57
2023-02-22T03:42:32.940Z,16.33
2023-02-22T03:45:05.027Z,16.97
2023-02-22T03:47:43.284Z,17.43
2023-02-22T03:50:18.323Z,17.23
2023-02-22T03:52:47.426Z,16.13
2023-02-22T03:55:17.680Z,17.80
2023-02-22T03:57:51.767Z,16.53
2023-02-22T04:00:23.747Z,17.83
2023-02-22T04:02:51.300Z,17.23
2023-02-22T04:05:18.643Z,18.27
2023-02-22T04:07:45.975Z,17.70
2023-02-22T04:10:15.151Z,18.70
2023-02-22T04:12:41.890Z,17.23
2023-02-22T04:15:12.927Z,17.83
2023-02-22T04:17:39.702Z,17.60
2023-02-22T04:20:11.619Z,18.00
2023-02-22T04:22:48.619Z,16.00
2023-02-22T04:25:15.442Z,17.63
2023-02-22T04:27:45.326Z,18.40
2023-02-22T04:30:21.784Z,17.07
2023-02-22T04:32:54.526Z,17.40
2023-02-22T04:35:21.563Z,18.87
2023-02-22T04:37:48.394Z,19.03
2023-02-22T04:40:17.435Z,19.10
2023-02-22T04:42:44.266Z,17.87
2023-02-22T04:45:11.445Z,19.07
2023-02-22T04:47:38.682Z,18.53
2023-02-22T04:50:07.858Z,17.63
2023-02-22T04:52:34.677Z,18.57
2023-02-22T04:55:01.747Z,19.87
2023-02-22T04:57:28.450Z,16.70
2023-02-22T04:59:58.156Z,16.63
2023-02-22T05:02:25.455Z,16.70
2023-02-22T05:04:52.361Z,16.40
2023-02-22T05:07:22.205Z,16.80
2023-02-22T05:09:48.936Z,17.13
2023-02-22T05:12:18.642Z,18.70
2023-02-22T05:14:45.459Z,17.90
2023-02-22T05:17:12.493Z,18.07
2023-02-22T05:19:39.248Z,18.77
2023-02-22T05:22:05.984Z,18.90
2023-02-22T05:24:32.771Z,18.27
2023-02-22T05:26:59.517Z,19.13
2023-02-22T05:29:29.454Z,18.57
2023-02-22T05:31:58.638Z,17.77
2023-02-22T05:34:25.413Z,19.13
2023-02-22T05:36:54.883Z,18.63
2023-02-22T05:39:24.044Z,19.80
2023-02-22T05:41:50.799Z,18.50
2023-02-22T05:44:17.668Z,18.80
2023-02-22T05:46:44.445Z,18.93
2023-02-22T05:49:11.254Z,17.80
2023-02-22T05:51:38.321Z,19.20
2023-02-22T05:54:08.210Z,19.57
2023-02-22T05:56:36.444Z,19.27
2023-02-22T05:59:03.482Z,19.60
2023-02-22T06:01:32.742Z,18.47
2023-02-22T06:03:59.504Z,18.83
2023-02-22T06:06:29.415Z,17.47
2023-02-22T06:08:56.157Z,17.40
2023-02-22T06:11:22.900Z,18.20
2023-02-22T06:13:55.060Z,17.17
2023-02-22T06:16:23.640Z,17.47
2023-02-22T06:18:53.479Z,17.60
2023-02-22T06:21:20.322Z,17.13
2023-02-22T06:23:47.037Z,16.90
2023-02-22T06:26:17.889Z,16.30
2023-02-22T06:28:46.469Z,16.90
2023-02-22T06:31:13.235Z,16.47
2023-02-22T06:33:40.004Z,18.53
2023-02-22T06:36:12.663Z,18.50
2023-02-22T06:38:42.971Z,18.30
2023-02-22T06:41:10.085Z,18.30
2023-02-22T06:43:36.773Z,18.17
2023-02-22T06:46:05.598Z,17.90
2023-02-22T06:48:32.324Z,17.20
2023-02-22T06:50:59.042Z,15.87
2023-02-22T06:53:27.836Z,16.77
2023-02-22T06:56:05.100Z,15.03
2023-02-22T06:58:34.094Z,15.33
2023-02-22T07:01:03.754Z,15.17
2023-02-22T07:03:31.030Z,14.37
2023-02-22T07:05:57.779Z,15.50
2023-02-22T07:08:25.576Z,16.30
2023-02-22T07:10:53.104Z,15.70
2023-02-22T07:13:20.381Z,16.90
2023-02-22T07:15:47.309Z,18.33
2023-02-22T07:18:16.049Z,15.87
2023-02-22T07:20:47.236Z,16.97
2023-02-22T07:23:18.300Z,16.93
2023-02-22T07:25:45.191Z,17.40
2023-02-22T07:28:15.049Z,17.33
2023-02-22T07:30:42.033Z,17.30
2023-02-22T07:33:13.410Z,17.63
2023-02-22T07:35:49.602Z,17.10
2023-02-22T07:38:19.436Z,15.37
2023-02-22T07:40:47.004Z,16.13
2023-02-22T07:43:20.823Z,17.43
2023-02-22T07:45:51.088Z,17.83
2023-02-22T07:48:24.640Z,16.93
2023-02-22T07:50:51.607Z,16.13
2023-02-22T07:53:21.577Z,17.03
2023-02-22T07:55:52.987Z,18.43
2023-02-22T07:58:24.103Z,16.33
2023-02-22T08:00:51.470Z,16.93
2023-02-22T08:03:21.020Z,17.17
2023-02-22T08:05:54.453Z,17.73
2023-02-22T08:08:22.034Z,17.70
2023-02-22T08:10:51.346Z,16.17
2023-02-22T08:13:22.028Z,17.40
2023-02-22T08:15:53.464Z,17.53
2023-02-22T08:18:24.404Z,16.63
2023-02-22T08:20:53.254Z,16.00
2023-02-22T08:23:23.319Z,16.20
2023-02-22T08:25:50.159Z,16.63
2023-02-22T08:28:23.213Z,16.53
2023-02-22T08:30:50.636Z,16.07
2023-02-22T08:33:19.591Z,15.77
2023-02-22T08:35:52.023Z,14.57
2023-02-22T08:38:46.212Z,16.30
2023-02-22T08:41:12.978Z,15.50
2023-02-22T08:43:39.831Z,15.30
2023-02-22T08:46:06.648Z,14.50
2023-02-22T08:48:36.247Z,14.63
2023-02-22T08:51:03.134Z,14.50
2023-02-22T08:53:32.085Z,14.93
2023-02-22T08:55:58.796Z,14.07
2023-02-22T08:58:25.478Z,14.43
2023-02-22T09:00:52.309Z,14.37
2023-02-22T09:03:19.238Z,14.33
2023-02-22T09:05:49.359Z,15.27
2023-02-22T09:08:17.574Z,15.43
2023-02-22T09:10:50.082Z,16.20
2023-02-22T09:13:19.229Z,14.47
2023-02-22T09:15:46.026Z,15.10
2023-02-22T09:18:14.574Z,15.73
2023-02-22T09:20:41.978Z,15.03
2023-02-22T09:23:09.838Z,15.63
2023-02-22T09:25:38.693Z,15.20
2023-02-22T09:28:08.407Z,15.43
2023-02-22T09:30:36.418Z,15.90
2023-02-22T09:33:10.330Z,14.60
2023-02-22T09:35:46.589Z,15.10
2023-02-22T09:38:24.691Z,14.93
2023-02-22T09:41:13.985Z,16.53
2023-02-22T09:44:02.393Z,15.17
2023-02-22T09:46:42.068Z,13.93
2023-02-22T09:49:38.087Z,15.27
2023-02-22T09:52:29.593Z,14.63
2023-02-22T09:55:28.777Z,15.37
2023-02-22T09:57:59.606Z,13.90
2023-02-22T10:00:39.549Z,14.23
2023-02-22T10:03:36.504Z,13.70
2023-02-22T10:06:26.066Z,14.37
2023-02-22T10:09:10.152Z,13.70
2023-02-22T10:12:02.763Z,14.30
2023-02-22T10:15:16.124Z,13.90
2023-02-22T10:17:58.762Z,14.13
2023-02-22T10:20:56.404Z,16.23
2023-02-22T10:23:44.310Z,14.43
2023-02-22T10:26:22.234Z,15.00
2023-02-22T10:29:00.509Z,13.97
2023-02-22T10:31:36.158Z,13.73
2023-02-22T10:34:30.660Z,14.90
2023-02-22T10:37:26.014Z,14.50
2023-02-22T10:40:20.409Z,14.77
2023-02-22T10:42:47.521Z,15.80
2023-02-22T10:45:32.616Z,16.03
2023-02-22T10:48:08.446Z,14.93
2023-02-22T10:50:40.718Z,14.47
2023-02-22T10:53:10.242Z,15.87
2023-02-22T10:56:16.776Z,15.17
2023-02-22T10:58:55.937Z,14.73
2023-02-22T11:01:35.147Z,15.33
2023-02-22T11:04:24.210Z,14.10
2023-02-22T11:07:24.866Z,16.20
2023-02-22T11:09:59.180Z,19.98
2023-02-22T11:12:32.065Z,17.43
2023-02-22T11:15:25.873Z,16.43
2023-02-22T11:17:59.779Z,15.60
2023-02-22T11:20:34.766Z,14.93
2023-02-22T11:23:04.570Z,16.63
2023-02-22T11:25:38.894Z,16.80
2023-02-22T11:28:32.808Z,16.03
2023-02-22T11:31:15.568Z,16.80
2023-02-22T11:34:00.681Z,16.20
2023-02-22T11:36:42.807Z,15.33
2023-02-22T11:39:34.444Z,15.03
2023-02-22T11:42:30.365Z,14.63
2023-02-22T11:45:14.965Z,15.77
2023-02-22T11:47:59.867Z,16.73
2023-02-22T11:50:31.652Z,15.70
2023-02-22T11:53:46.156Z,17.73
2023-02-22T11:56:40.353Z,15.23
2023-02-22T11:59:40.774Z,15.20
2023-02-22T12:02:56.320Z,14.53
2023-02-22T12:06:09.990Z,14.57
2023-02-22T12:08:45.802Z,14.27
2023-02-22T12:11:55.052Z,13.90
2023-02-22T12:14:39.450Z,14.17
2023-02-22T12:17:38.999Z,15.40
2023-02-22T12:20:47.662Z,14.23
2023-02-22T12:24:14.387Z,15.00
2023-02-22T12:26:50.321Z,14.20
2023-02-22T12:29:31.226Z,14.80
2023-02-22T12:32:13.616Z,14.35
2023-02-22T12:34:59.483Z,13.80
2023-02-22T12:37:51.381Z,13.30
2023-02-22T12:40:53.806Z,14.03
2023-02-22T12:43:45.413Z,13.60
2023-02-22T12:46:31.215Z,14.33
2023-02-22T12:49:38.274Z,14.40
2023-02-22T12:52:28.378Z,13.03
2023-02-22T12:55:33.480Z,13.67
2023-02-22T12:58:46.408Z,13.53
2023-02-22T13:01:21.797Z,12.23
2023-02-22T13:03:49.215Z,13.60
2023-02-22T13:06:53.905Z,15.37
2023-02-22T13:09:48.400Z,13.90
2023-02-22T13:12:47.844Z,15.67
2023-02-22T13:15:40.706Z,14.40
2023-02-22T13:18:38.682Z,14.40
2023-02-22T13:21:40.904Z,13.37
2023-02-22T13:24:41.651Z,13.97
2023-02-22T13:27:21.380Z,13.60
2023-02-22T13:29:55.269Z,16.10
2023-02-22T13:32:51.760Z,13.37
2023-02-22T13:35:49.365Z,14.03
2023-02-22T13:38:54.031Z,13.73
2023-02-22T13:41:35.655Z,13.43
2023-02-22T13:44:52.130Z,14.00
2023-02-22T13:47:40.756Z,13.97
2023-02-22T13:51:11.048Z,14.13
2023-02-22T13:54:09.882Z,14.33
2023-02-22T13:56:45.144Z,13.73
2023-02-22T13:59:47.838Z,13.13
2023-02-22T14:03:02.894Z,13.23
2023-02-22T14:05:44.756Z,14.00
2023-02-22T14:08:18.569Z,13.33
2023-02-22T14:10:50.492Z,14.30
2023-02-22T14:13:22.513Z,13.90
2023-02-22T14:16:03.452Z,13.00
2023-02-22T14:18:41.115Z,12.93
2023-02-22T14:21:20.948Z,12.80
2023-02-22T14:24:10.909Z,12.37
2023-02-22T14:26:40.011Z,13.17
2023-02-22T14:29:09.664Z,13.03
2023-02-22T14:31:46.466Z,13.47
2023-02-22T14:34:41.710Z,12.50
2023-02-22T14:37:21.646Z,13.00
2023-02-22T14:40:12.617Z,11.20
2023-02-22T14:43:06.831Z,13.57
2023-02-22T14:45:39.763Z,12.53
2023-02-22T14:48:33.483Z,12.73
2023-02-22T14:51:21.982Z,11.80
2023-02-22T14:53:58.803Z,12.40
2023-02-22T14:56:44.040Z,12.60
2023-02-22T14:59:25.758Z,13.10
2023-02-22T15:02:11.938Z,12.30
2023-02-22T15:04:58.113Z,13.30
2023-02-22T15:07:30.301Z,12.20
2023-02-22T15:10:25.882Z,12.27
2023-02-22T15:13:27.402Z,13.07
2023-02-22T15:16:08.617Z,13.30
2023-02-22T15:18:46.437Z,11.93
2023-02-22T15:21:23.535Z,16.65
2023-02-22T15:24:04.333Z,14.70
2023-02-22T15:26:55.399Z,15.10
2023-02-22T15:29:40.973Z,13.33
2023-02-22T15:32:36.318Z,12.80
2023-02-22T15:35:29.118Z,13.37
2023-02-22T15:38:09.153Z,11.87
2023-02-22T15:40:42.823Z,13.17
2023-02-22T15:43:26.223Z,12.27
2023-02-22T15:45:53.319Z,12.90
2023-02-22T15:48:20.195Z,12.83
2023-02-22T15:51:17.129Z,13.93
2023-02-22T15:53:50.950Z,13.27
2023-02-22T15:56:30.802Z,13.50
2023-02-22T15:59:09.126Z,12.97
2023-02-22T16:01:43.025Z,14.03
2023-02-22T16:04:27.362Z,14.93
2023-02-22T16:07:06.987Z,14.30
2023-02-22T16:09:34.698Z,15.40
2023-02-22T16:12:22.443Z,15.10
2023-02-22T16:14:52.209Z,14.00
2023-02-22T16:17:27.783Z,16.40
2023-02-22T16:19:56.335Z,15.30
2023-02-22T16:22:36.505Z,15.23
2023-02-22T16:25:18.491Z,16.07
2023-02-22T16:27:57.997Z,17.67
2023-02-22T16:30:34.933Z,17.33
2023-02-22T16:33:10.000Z,16.03
2023-02-22T16:35:37.081Z,16.37
2023-02-22T16:38:16.670Z,15.80
2023-02-22T16:40:58.392Z,16.80
2023-02-22T16:43:32.722Z,17.77
2023-02-22T16:46:01.984Z,15.93
2023-02-22T16:48:32.725Z,18.17
2023-02-22T16:51:19.060Z,20.17
2023-02-22T16:53:48.684Z,22.10
2023-02-22T16:56:20.280Z,21.70
2023-02-22T16:58:50.643Z,24.07
2023-02-22T17:01:18.706Z,23.77
2023-02-22T17:03:46.406Z,22.50
2023-02-22T17:06:13.268Z,22.73
2023-02-22T17:08:41.948Z,23.47
2023-02-22T17:11:14.056Z,23.30
2023-02-22T17:13:40.984Z,22.50
2023-02-22T17:16:17.497Z,22.47
2023-02-22T17:18:45.992Z,24.47
2023-02-22T17:21:13.059Z,23.10
2023-02-22T17:23:39.939Z,24.03
2023-02-22T17:26:06.753Z,25.83
2023-02-22T17:28:33.518Z,25.80
2023-02-22T17:31:01.674Z,25.33
2023-02-22T17:33:36.538Z,24.43
2023-02-22T17:36:05.008Z,25.63
2023-02-22T17:38:34.384Z,24.10
2023-02-22T17:41:02.706Z,25.27
2023-02-22T17:43:29.848Z,29.30
2023-02-22T17:45:57.228Z,31.90
2023-02-22T17:48:24.849Z,30.87
2023-02-22T17:50:52.991Z,26.90
2023-02-22T17:53:25.296Z,29.40
2023-02-22T17:55:55.334Z,29.83
2023-02-22T17:58:23.530Z,30.60
2023-02-22T18:00:51.014Z,33.20
2023-02-22T18:03:24.977Z,32.07
2023-02-22T18:05:58.518Z,35.27
2023-02-22T18:08:30.978Z,34.00
2023-02-22T18:11:05.083Z,33.90
2023-02-22T18:13:31.852Z,31.67
2023-02-22T18:16:04.875Z,32.63
2023-02-22T18:18:32.634Z,33.43
2023-02-22T18:20:59.789Z,35.30
2023-02-22T18:23:32.547Z,35.77
2023-02-22T18:26:11.054Z,36.47
2023-02-22T18:28:39.506Z,37.27
2023-02-22T18:31:15.340Z,37.23
2023-02-22T18:33:44.500Z,35.90
2023-02-22T18:36:12.331Z,37.10
2023-02-22T18:38:43.899Z,36.23
2023-02-22T18:41:17.106Z,39.47
2023-02-22T18:43:44.169Z,35.60
2023-02-22T18:46:20.570Z,35.97
2023-02-22T18:48:52.994Z,35.63
2023-02-22T18:51:19.787Z,39.43
2023-02-22T18:53:59.816Z,38.47
2023-02-22T18:56:32.208Z,37.57
2023-02-22T18:59:04.097Z,37.97
2023-02-22T19:01:38.434Z,36.90
2023-02-22T19:04:12.671Z,37.90
2023-02-22T19:06:40.274Z,40.93
2023-02-22T19:09:08.626Z,39.90
2023-02-22T19:11:37.145Z,37.90
2023-02-22T19:14:05.195Z,38.17
2023-02-22T19:16:33.218Z,36.77
2023-02-22T19:19:00.371Z,36.93
2023-02-22T19:21:29.763Z,37.67
2023-02-22T19:23:59.564Z,48.70
2023-02-22T19:26:28.960Z,40.17
2023-02-22T19:28:58.564Z,36.27
2023-02-22T19:31:33.748Z,36.63
2023-02-22T19:34:05.854Z,36.33
2023-02-22T19:36:32.825Z,34.77
2023-02-22T19:39:02.672Z,32.67
2023-02-22T19:41:32.765Z,33.93
2023-02-22T19:44:01.132Z,33.93
2023-02-22T19:46:28.309Z,32.93
2023-02-22T19:48:58.348Z,33.47
2023-02-22T19:51:28.725Z,33.70
2023-02-22T19:54:08.189Z,32.37
2023-02-22T19:56:35.697Z,32.27
2023-02-22T19:59:11.486Z,32.67
2023-02-22T20:01:41.246Z,31.17
2023-02-22T20:04:18.214Z,30.90
2023-02-22T20:06:48.656Z,31.20
2023-02-22T20:09:23.674Z,31.57
2023-02-22T20:11:54.130Z,32.00
2023-02-22T20:14:28.379Z,30.80
2023-02-22T20:16:57.546Z,31.17
2023-02-22T20:19:26.815Z,30.57
2023-02-22T20:22:00.289Z,30.27
2023-02-22T20:24:27.653Z,33.17
2023-02-22T20:26:57.083Z,31.20
2023-02-22T20:29:29.639Z,31.27
2023-02-22T20:31:59.506Z,28.33
2023-02-22T20:34:30.376Z,32.23
2023-02-22T20:37:01.760Z,30.57
2023-02-22T20:39:29.192Z,31.47
2023-02-22T20:41:56.116Z,31.63
2023-02-22T20:44:22.901Z,29.03
2023-02-22T20:46:49.786Z,27.53
2023-02-22T20:49:19.878Z,29.63
2023-02-22T20:51:48.252Z,31.57
2023-02-22T20:54:16.911Z,29.80
2023-02-22T20:56:47.954Z,36.40
2023-02-22T20:59:18.318Z,40.33
2023-02-22T21:01:48.074Z,36.63
2023-02-22T21:04:15.370Z,31.77
2023-02-22T21:06:46.629Z,30.90
2023-02-22T21:09:18.190Z,29.60
2023-02-22T21:11:49.090Z,30.73
2023-02-22T21:14:18.759Z,30.43
2023-02-22T21:16:51.796Z,33.57
2023-02-22T21:19:25.231Z,29.57
2023-02-22T21:21:55.375Z,26.23
2023-02-22T21:24:25.125Z,27.83
2023-02-22T21:26:52.445Z,24.93
2023-02-22T21:29:22.601Z,25.20
2023-02-22T21:31:49.602Z,25.47
2023-02-22T21:34:20.018Z,24.90
2023-02-22T21:36:47.247Z,24.47
2023-02-22T21:39:19.079Z,23.87
2023-02-22T21:41:51.661Z,24.40
2023-02-22T21:44:19.123Z,25.53
2023-02-22T21:46:48.779Z,25.50
2023-02-22T21:49:16.782Z,25.30
2023-02-22T21:51:44.872Z,25.63
2023-02-22T21:54:12.894Z,25.07
2023-02-22T21:56:42.807Z,25.27
2023-02-22T21:59:18.722Z,24.50
2023-02-22T22:01:49.955Z,25.53
2023-02-22T22:04:21.010Z,25.50
2023-02-22T22:06:53.939Z,26.43
2023-02-22T22:09:23.486Z,24.70
2023-02-22T22:11:54.913Z,25.90
2023-02-22T22:14:24.789Z,25.97
2023-02-22T22:17:05.408Z,25.70
2023-02-22T22:19:39.167Z,25.53
2023-02-22T22:22:12.851Z,25.47
2023-02-22T22:24:41.675Z,24.47
2023-02-22T22:27:12.157Z,25.37
2023-02-22T22:29:41.375Z,24.70
2023-02-22T22:32:08.880Z,27.53
2023-02-22T22:34:37.769Z,26.00
2023-02-22T22:37:04.570Z,25.70
2023-02-22T22:39:31.663Z,25.17
2023-02-22T22:41:58.460Z,27.47
2023-02-22T22:44:32.420Z,25.10
2023-02-22T22:46:59.239Z,25.70
2023-02-22T22:49:28.335Z,24.77
2023-02-22T22:51:55.162Z,25.17
2023-02-22T22:54:21.939Z,25.40
2023-02-22T22:56:48.756Z,25.93
2023-02-22T22:59:15.556Z,25.67
2023-02-22T23:01:44.616Z,25.50
2023-02-22T23:04:24.337Z,26.67
2023-02-22T23:06:56.464Z,26.27
2023-02-22T23:09:31.418Z,26.33
2023-02-22T23:12:08.658Z,26.33
2023-02-22T23:14:46.339Z,25.20
2023-02-22T23:17:26.702Z,26.60
2023-02-22T23:19:53.415Z,25.10
2023-02-22T23:22:21.198Z,25.87
2023-02-22T23:24:48.377Z,28.30
2023-02-22T23:27:15.414Z,26.17
2023-02-22T23:29:46.383Z,27.77
2023-02-22T23:32:16.817Z,26.53
2023-02-22T23:34:51.702Z,27.17
2023-02-22T23:37:20.612Z,26.90
2023-02-22T23:39:48.435Z,27.03
2023-02-22T23:42:16.746Z,25.50
2023-02-22T23:44:46.063Z,27.47
2023-02-22T23:47:12.831Z,26.80
2023-02-22T23:49:43.299Z,28.13
2023-02-22T23:52:13.254Z,26.50
2023-02-22T23:54:43.798Z,26.47
2023-02-22T23:57:10.824Z,29.50
2023-02-22T23:59:42.530Z,28.50
